Time;durP1;ratioP1;P1;durP2;ratioP2;P2;SDS_P1;SDS_P2;PMS_P1;PMS_P2;Temp;Humidity;BMP_temperature;BMP_pressure;BME280_temperature;BME280_humidity;BME280_pressure;Samples;Min_cycle;Max_cycle;Signal;HPM_P1;HPM_P2
2024/01/19 00:01:21;;;;;;;0.20;0.20;;;;;;;2.83;75.49;100019.00;4940554;28;20046;-87
2024/01/19 00:03:47;;;;;;;0.20;0.20;;;;;;;2.86;75.38;100024.06;4924602;28;20031;-87
2024/01/19 00:06:13;;;;;;;0.20;0.20;;;;;;;2.90;75.55;100038.41;4939836;28;20047;-89
2024/01/19 00:08:38;;;;;;;0.20;0.20;;;;;;;2.90;75.34;100025.63;4940265;28;20480;-86
2024/01/19 00:11:05;;;;;;;0.20;0.20;;;;;;;2.97;75.56;100047.59;4956091;28;20079;-87
2024/01/19 00:13:31;;;;;;;0.20;0.20;;;;;;;2.97;75.65;100047.59;4956265;28;20116;-87
2024/01/19 00:15:56;;;;;;;0.20;0.20;;;;;;;2.94;75.65;100057.03;4940027;28;20117;-87
2024/01/19 00:18:23;;;;;;;0.10;0.10;;;;;;;2.97;75.49;100051.88;4939851;28;20109;-88
2024/01/19 00:20:49;;;;;;;0.20;0.20;;;;;;;2.90;75.33;100055.47;4939970;28;20077;-87
2024/01/19 00:23:15;;;;;;;0.20;0.20;;;;;;;2.89;75.45;100044.41;4956335;28;20027;-88
2024/01/19 00:25:40;;;;;;;0.20;0.20;;;;;;;2.92;75.78;100062.19;4939867;28;20031;-88
2024/01/19 00:28:06;;;;;;;0.20;0.20;;;;;;;2.88;75.79;100063.19;4939860;28;20039;-88
2024/01/19 00:30:32;;;;;;;0.20;0.20;;;;;;;2.86;76.47;100070.03;4940332;28;20086;-86
2024/01/19 00:32:57;;;;;;;0.20;0.20;;;;;;;2.90;75.90;100066.53;4939662;28;20492;-88
2024/01/19 00:35:23;;;;;;;0.20;0.20;;;;;;;2.76;76.24;100066.88;4939297;28;20035;-87
2024/01/19 00:37:48;;;;;;;0.10;0.10;;;;;;;2.72;76.15;100061.88;4955626;28;20050;-88
2024/01/19 00:40:14;;;;;;;0.10;0.10;;;;;;;2.72;76.34;100054.22;4940081;28;20505;-88
2024/01/19 00:42:40;;;;;;;0.20;0.20;;;;;;;2.60;76.98;100052.81;4939688;28;20034;-87
2024/01/19 00:45:07;;;;;;;0.20;0.20;;;;;;;2.55;77.19;100050.38;4939790;28;20027;-87
2024/01/19 00:47:34;;;;;;;0.10;0.10;;;;;;;2.66;76.83;100034.81;4939445;28;20034;-86
2024/01/19 00:50:00;;;;;;;0.20;0.20;;;;;;;2.62;76.91;100043.41;4939397;28;20098;-88
2024/01/19 00:52:25;;;;;;;0.10;0.10;;;;;;;2.73;76.67;100045.69;4955542;28;20158;-88
2024/01/19 00:54:51;;;;;;;0.20;0.20;;;;;;;2.66;76.97;100033.97;4939470;28;20034;-87
2024/01/19 00:57:16;;;;;;;0.20;0.20;;;;;;;2.65;76.98;100024.59;4939536;28;20038;-88
2024/01/19 00:59:42;;;;;;;0.10;0.10;;;;;;;2.79;77.06;100032.75;4939700;28;20477;-88
2024/01/19 01:02:07;;;;;;;0.20;0.20;;;;;;;2.71;77.47;100022.72;4939116;28;20031;-89
2024/01/19 01:04:33;;;;;;;0.20;0.20;;;;;;;2.81;77.33;100026.72;4938748;28;20038;-86
2024/01/19 01:06:59;;;;;;;0.20;0.20;;;;;;;2.91;76.93;100024.75;4955203;28;20027;-86
2024/01/19 01:09:25;;;;;;;0.20;0.20;;;;;;;3.03;76.40;100037.19;4955131;28;20106;-87
2024/01/19 01:11:50;;;;;;;0.20;0.20;;;;;;;2.92;76.81;100040.91;4939157;28;20122;-87
2024/01/19 01:14:16;;;;;;;0.20;0.20;;;;;;;2.85;77.64;100043.66;4939023;28;20018;-86
2024/01/19 01:16:41;;;;;;;0.10;0.10;;;;;;;2.96;77.34;100050.19;4955095;28;20030;-87
2024/01/19 01:19:08;;;;;;;0.20;0.20;;;;;;;2.89;77.13;100039.28;4954799;28;20027;-86
2024/01/19 01:21:33;;;;;;;0.20;0.20;;;;;;;3.03;76.64;100052.53;4954896;28;20031;-86
2024/01/19 01:23:59;;;;;;;0.20;0.20;;;;;;;2.99;76.45;100040.72;4938913;28;20467;-86
2024/01/19 01:26:25;;;;;;;0.20;0.20;;;;;;;3.05;76.65;100038.00;4938901;28;20031;-86
2024/01/19 01:28:51;;;;;;;0.20;0.20;;;;;;;2.97;76.42;100011.81;4938728;28;20100;-87
2024/01/19 01:31:16;;;;;;;0.20;0.20;;;;;;;3.07;76.40;100028.56;4954665;28;20449;-86
2024/01/19 01:33:42;;;;;;;0.20;0.20;;;;;;;3.07;76.33;100023.47;4938630;28;20073;-87
2024/01/19 01:36:07;;;;;;;0.20;0.20;;;;;;;3.10;76.47;100033.59;4938498;28;20041;-87
2024/01/19 01:38:33;;;;;;;0.20;0.20;;;;;;;3.06;76.52;100044.78;4971963;28;20107;-86
2024/01/19 01:40:58;;;;;;;0.20;0.20;;;;;;;2.96;76.60;100040.81;4938829;28;20035;-87
2024/01/19 01:43:24;;;;;;;0.20;0.20;;;;;;;2.95;76.77;100030.59;4938558;28;20093;-87
2024/01/19 01:45:50;;;;;;;0.20;0.20;;;;;;;3.13;76.55;100059.06;4971909;28;20117;-87
2024/01/19 01:48:16;;;;;;;0.10;0.10;;;;;;;3.02;75.98;100039.78;4938542;28;20022;-88
2024/01/19 01:50:42;;;;;;;0.20;0.20;;;;;;;3.01;75.87;100040.69;4954919;28;20092;-89
2024/01/19 01:53:07;;;;;;;0.20;0.20;;;;;;;3.14;75.60;100050.50;4938531;28;20089;-89
2024/01/19 01:55:33;;;;;;;0.20;0.20;;;;;;;3.10;75.49;100040.44;4954458;28;20081;-89
2024/01/19 01:57:58;;;;;;;0.20;0.20;;;;;;;3.05;75.91;100045.69;4938432;28;20027;-86
2024/01/19 02:00:24;;;;;;;0.20;0.20;;;;;;;2.91;75.83;100044.34;4938639;28;20093;-88
2024/01/19 02:02:49;;;;;;;0.10;0.10;;;;;;;2.98;76.10;100066.31;4954435;28;20031;-87
2024/01/19 02:05:15;;;;;;;0.20;0.20;;;;;;;2.91;76.38;100057.97;4940786;28;20527;-87
2024/01/19 02:07:41;;;;;;;0.20;0.20;;;;;;;2.93;76.48;100060.47;4958513;28;20058;-88
2024/01/19 02:10:06;;;;;;;0.20;0.20;;;;;;;2.99;76.75;100066.28;4942550;28;20045;-87
2024/01/19 02:12:32;;;;;;;0.20;0.20;;;;;;;2.92;76.48;100041.75;4942320;28;20069;-87
2024/01/19 02:14:58;;;;;;;0.20;0.20;;;;;;;2.93;76.78;100065.59;4942129;28;20085;-87
2024/01/19 02:17:26;;;;;;;0.20;0.20;;;;;;;2.89;77.15;100054.63;4958658;28;20039;-88
2024/01/19 02:19:53;;;;;;;0.10;0.10;;;;;;;2.92;77.17;100051.16;4942947;28;20022;-87
2024/01/19 02:22:19;;;;;;;0.20;0.20;;;;;;;3.03;76.60;100055.06;4926489;28;20471;-88
2024/01/19 02:24:45;;;;;;;0.20;0.20;;;;;;;2.94;76.91;100037.44;4942415;28;20034;-86
2024/01/19 02:27:11;;;;;;;0.20;0.20;;;;;;;3.07;77.03;100060.97;4942111;28;20058;-86
2024/01/19 02:29:36;;;;;;;0.20;0.20;;;;;;;2.87;76.36;100006.13;4941716;28;20019;-86
2024/01/19 02:32:02;;;;;;;0.20;0.20;;;;;;;2.85;76.80;100032.56;4975209;28;20023;-87
2024/01/19 02:34:27;;;;;;;0.20;0.20;;;;;;;2.86;76.96;100045.34;4957875;28;20035;-89
2024/01/19 02:36:54;;;;;;;0.20;0.20;;;;;;;2.94;76.64;100047.66;4957662;28;20488;-87
2024/01/19 02:39:19;;;;;;;0.20;0.20;;;;;;;2.73;76.75;100027.78;4958071;28;20489;-86
2024/01/19 02:41:45;;;;;;;0.20;0.20;;;;;;;2.94;76.37;100052.78;4957868;28;20122;-87
2024/01/19 02:44:11;;;;;;;0.20;0.20;;;;;;;2.89;76.75;100034.19;4925580;28;20121;-87
2024/01/19 02:46:38;;;;;;;0.20;0.20;;;;;;;2.85;76.73;100033.44;4957787;28;20034;-88
2024/01/19 02:49:04;;;;;;;0.20;0.20;;;;;;;2.91;77.11;100036.69;4942499;28;20078;-87
2024/01/19 02:51:30;;;;;;;0.20;0.20;;;;;;;2.94;77.30;100042.53;4975037;28;20404;-87
2024/01/19 02:53:55;;;;;;;0.20;0.20;;;;;;;3.02;77.07;100057.69;4941485;28;20035;-86
2024/01/19 02:56:21;;;;;;;0.20;0.20;;;;;;;2.92;76.79;100028.97;4941487;28;20074;-87
2024/01/19 02:58:47;;;;;;;0.20;0.20;;;;;;;2.97;76.75;100044.22;4957343;28;20085;-88
2024/01/19 03:01:12;;;;;;;0.20;0.20;;;;;;;2.93;77.63;100042.59;4941529;28;20413;-87
2024/01/19 03:03:38;;;;;;;0.20;0.20;;;;;;;2.90;77.59;100045.25;4957419;28;20046;-87
2024/01/19 03:06:04;;;;;;;0.20;0.20;;;;;;;2.98;77.21;100045.88;4941006;28;20406;-87
2024/01/19 03:08:29;;;;;;;0.20;0.20;;;;;;;2.90;77.34;100051.19;4957591;28;20408;-87
2024/01/19 03:10:55;;;;;;;0.20;0.20;;;;;;;2.96;77.23;100060.41;4957467;28;20421;-86
2024/01/19 03:13:21;;;;;;;0.20;0.20;;;;;;;2.92;77.23;100048.59;4957122;28;20058;-88
2024/01/19 03:15:46;;;;;;;0.20;0.20;;;;;;;2.99;77.74;100056.06;4940885;28;20065;-87
2024/01/19 03:18:12;;;;;;;0.20;0.20;;;;;;;3.06;77.08;100060.13;4941222;28;20050;-86
2024/01/19 03:20:37;;;;;;;0.20;0.20;;;;;;;3.02;76.87;100050.84;4925331;28;20035;-87
2024/01/19 03:23:03;;;;;;;0.20;0.20;;;;;;;2.99;77.18;100045.00;4940991;28;20031;-88
2024/01/19 03:25:29;;;;;;;0.20;0.20;;;;;;;3.02;76.84;100030.41;4940983;28;20030;-87
2024/01/19 03:27:54;;;;;;;0.20;0.20;;;;;;;3.04;77.50;100043.13;4940716;28;20089;-87
2024/01/19 03:30:20;;;;;;;0.20;0.20;;;;;;;2.91;78.01;100027.31;4940838;28;20082;-86
2024/01/19 03:32:45;;;;;;;0.20;0.20;;;;;;;2.98;77.12;100028.81;4941096;28;20039;-88
2024/01/19 03:35:11;;;;;;;0.20;0.20;;;;;;;2.77;77.75;100004.69;4940967;28;20035;-87
2024/01/19 03:37:37;;;;;;;0.20;0.20;;;;;;;3.00;78.47;100042.41;4940761;28;20556;-87
2024/01/19 03:40:05;;;;;;;0.20;0.20;;;;;;;2.97;78.44;100027.16;4940433;28;20034;-87
2024/01/19 03:42:31;;;;;;;0.20;0.20;;;;;;;3.00;78.30;100056.91;4956987;28;20039;-89
2024/01/19 03:44:56;;;;;;;0.20;0.20;;;;;;;3.00;77.96;100062.00;4940841;28;20038;-87
2024/01/19 03:47:22;;;;;;;0.20;0.20;;;;;;;3.02;78.30;100066.19;4940545;28;20031;-87
2024/01/19 03:49:48;;;;;;;0.20;0.20;;;;;;;3.02;78.33;100050.84;4940630;28;20035;-86
2024/01/19 03:52:13;;;;;;;0.20;0.20;;;;;;;2.93;78.49;100040.88;4940533;28;20425;-87
2024/01/19 03:54:39;;;;;;;0.20;0.20;;;;;;;3.01;79.23;100058.56;4924652;28;20485;-86
2024/01/19 03:57:06;;;;;;;0.10;0.10;;;;;;;3.10;79.74;100079.59;4940288;28;20057;-86
2024/01/19 03:59:31;;;;;;;0.20;0.20;;;;;;;3.21;79.00;100086.13;4956511;28;20119;-87
2024/01/19 04:01:57;;;;;;;0.20;0.20;;;;;;;3.16;78.94;100074.34;4940323;28;20023;-87
2024/01/19 04:04:23;;;;;;;0.20;0.20;;;;;;;3.24;78.70;100065.59;4941425;28;20062;-91
2024/01/19 04:06:49;;;;;;;0.20;0.20;;;;;;;3.38;78.37;100073.72;4941580;28;20030;-89
2024/01/19 04:09:17;;;;;;;0.20;0.20;;;;;;;3.46;77.51;100074.34;4941516;28;20034;-89
2024/01/19 04:11:43;;;;;;;0.20;0.20;;;;;;;3.35;78.44;100064.44;4941303;28;20066;-88
2024/01/19 04:14:09;;;;;;;0.20;0.20;;;;;;;3.48;78.53;100079.44;4941593;28;20030;-91
2024/01/19 04:16:34;;;;;;;0.20;0.20;;;;;;;3.36;78.07;100053.31;4941269;28;20409;-90
2024/01/19 04:19:00;;;;;;;0.20;0.20;;;;;;;3.53;77.71;100078.41;4941035;28;20409;-90
2024/01/19 04:21:25;;;;;;;0.20;0.20;;;;;;;3.48;78.31;100090.50;4941215;28;20027;-90
2024/01/19 04:23:51;;;;;;;0.20;0.20;;;;;;;3.47;78.40;100082.88;4941029;28;20031;-88
2024/01/19 04:26:16;;;;;;;0.20;0.20;;;;;;;3.36;78.01;100060.16;4940617;28;20027;-89
2024/01/19 04:28:42;;;;;;;0.20;0.20;;;;;;;3.48;77.94;100085.38;4935469;28;20027;-87
2024/01/19 04:31:07;;;;;;;0.20;0.20;;;;;;;3.40;77.67;100097.53;4955762;28;20042;-88
2024/01/19 04:33:33;;;;;;;0.20;0.20;;;;;;;3.38;77.64;100081.41;4971863;28;20026;-89
2024/01/19 04:35:58;;;;;;;0.20;0.20;;;;;;;3.43;77.64;100102.56;4955802;28;20061;-90
2024/01/19 04:38:24;;;;;;;0.20;0.20;;;;;;;3.25;77.72;100092.88;4940791;28;21242;-90
2024/01/19 04:40:49;;;;;;;0.20;0.20;;;;;;;3.22;78.14;100105.69;4956133;28;20054;-90
2024/01/19 04:43:15;;;;;;;0.20;0.20;;;;;;;3.30;78.35;100119.13;4957412;28;20034;-92
2024/01/19 04:45:40;;;;;;;0.20;0.20;;;;;;;3.25;78.23;100118.44;5032490;23;20088;-88
2024/01/19 04:48:06;;;;;;;0.20;0.20;;;;;;;3.31;77.62;100128.47;5018997;28;20029;-87
2024/01/19 04:50:32;;;;;;;0.20;0.20;;;;;;;3.29;77.86;100123.41;5016576;28;20036;-86
2024/01/19 04:52:57;;;;;;;0.17;0.17;;;;;;;3.21;77.93;100107.44;5033172;28;20033;-87
2024/01/19 04:55:23;;;;;;;0.20;0.20;;;;;;;3.24;78.10;100101.38;5050688;28;20119;-88
2024/01/19 04:57:48;;;;;;;0.20;0.20;;;;;;;3.24;77.99;100096.28;5033014;28;20029;-87
2024/01/19 05:00:14;;;;;;;0.20;0.20;;;;;;;3.32;77.69;100118.19;5016603;28;20426;-87
2024/01/19 05:02:40;;;;;;;0.20;0.20;;;;;;;3.40;77.59;100123.09;5003038;28;20116;-87
2024/01/19 05:05:05;;;;;;;0.20;0.20;;;;;;;3.31;77.84;100125.91;5017209;28;20025;-88
2024/01/19 05:07:31;;;;;;;0.20;0.20;;;;;;;3.27;77.90;100117.50;5050907;28;20029;-90
2024/01/19 05:09:57;;;;;;;0.20;0.20;;;;;;;3.31;77.64;100110.56;5054656;28;20012;-89
2024/01/19 05:12:23;;;;;;;0.20;0.20;;;;;;;3.32;77.69;100109.69;5020118;28;20112;-88
2024/01/19 05:14:48;;;;;;;0.20;0.20;;;;;;;3.37;77.21;100112.97;5036344;28;20064;-87
2024/01/19 05:17:14;;;;;;;0.10;0.10;;;;;;;3.39;77.44;100121.44;5016832;28;20100;-88
2024/01/19 05:19:40;;;;;;;0.20;0.20;;;;;;;3.16;77.55;100099.91;5033927;28;20040;-92
2024/01/19 05:22:06;;;;;;;0.20;0.20;;;;;;;3.37;77.35;100121.47;5032965;28;20024;-86
2024/01/19 05:24:32;;;;;;;0.20;0.20;;;;;;;3.28;77.38;100118.34;5032442;28;20052;-85
2024/01/19 05:26:57;;;;;;;0.20;0.20;;;;;;;3.37;77.45;100133.44;5032514;28;20056;-84
2024/01/19 05:29:23;;;;;;;0.20;0.20;;;;;;;3.31;77.83;100129.31;5042118;28;20135;-84
2024/01/19 05:31:49;;;;;;;0.20;0.20;;;;;;;3.36;77.35;100139.41;5031043;28;20032;-85
2024/01/19 05:34:15;;;;;;;0.20;0.20;;;;;;;3.38;77.48;100125.72;5037889;28;20047;-86
2024/01/19 05:36:40;;;;;;;0.20;0.20;;;;;;;3.31;78.21;100136.97;5037737;28;20072;-86
2024/01/19 05:39:07;;;;;;;0.20;0.20;;;;;;;3.24;78.62;100135.44;5021215;28;20032;-88
2024/01/19 05:41:33;;;;;;;0.10;0.10;;;;;;;3.39;78.08;100137.59;5035286;28;20500;-86
2024/01/19 05:43:59;;;;;;;0.20;0.20;;;;;;;3.49;77.95;100142.47;5050236;28;20037;-85
2024/01/19 05:46:25;;;;;;;0.20;0.20;;;;;;;3.47;78.05;100139.13;5051754;28;20068;-91
2024/01/19 05:48:50;;;;;;;0.20;0.20;;;;;;;3.58;77.55;100158.41;5052897;28;20514;-87
2024/01/19 05:51:16;;;;;;;0.10;0.10;;;;;;;3.67;77.80;100168.38;5052307;28;20496;-88
2024/01/19 05:53:42;;;;;;;0.20;0.20;;;;;;;3.61;77.35;100137.00;5032359;28;20466;-83
2024/01/19 05:56:07;;;;;;;0.20;0.20;;;;;;;3.70;76.96;100168.28;5032173;28;20036;-84
2024/01/19 05:58:33;;;;;;;0.20;0.20;;;;;;;3.70;76.84;100163.16;5031646;28;20039;-84
2024/01/19 06:01:00;;;;;;;0.20;0.20;;;;;;;3.80;76.94;100178.25;5039441;28;20028;-87
2024/01/19 06:03:25;;;;;;;0.20;0.20;;;;;;;3.78;76.71;100165.53;5020178;28;20053;-89
2024/01/19 06:05:51;;;;;;;0.20;0.20;;;;;;;3.74;76.84;100175.00;5043503;28;20044;-86
2024/01/19 06:08:16;;;;;;;0.20;0.20;;;;;;;3.76;76.46;100174.97;5043729;28;20090;-85
2024/01/19 06:10:42;;;;;;;0.20;0.20;;;;;;;3.67;76.52;100170.09;5031782;28;20094;-83
2024/01/19 06:13:08;;;;;;;0.20;0.20;;;;;;;3.55;76.33;100161.06;5056384;28;20522;-87
2024/01/19 06:15:34;;;;;;;0.20;0.20;;;;;;;3.59;76.61;100183.09;5037602;28;20375;-91
2024/01/19 06:18:00;;;;;;;0.20;0.20;;;;;;;3.60;76.77;100182.22;5054164;28;20029;-90
2024/01/19 06:20:26;;;;;;;0.20;0.20;;;;;;;3.58;77.02;100183.16;5335535;22;20084;-90
2024/01/19 06:22:52;;;;;;;0.20;0.20;;;;;;;3.60;76.91;100192.44;5031169;28;20033;-88
2024/01/19 06:25:17;;;;;;;0.20;0.20;;;;;;;3.61;76.89;100199.25;5026504;28;20026;-89
2024/01/19 06:27:44;;;;;;;0.20;0.20;;;;;;;3.62;76.67;100182.16;5015295;28;20041;-89
2024/01/19 06:30:10;;;;;;;0.20;0.20;;;;;;;3.51;76.64;100179.91;4992104;28;20434;-86
2024/01/19 06:32:36;;;;;;;0.20;0.20;;;;;;;3.61;76.81;100204.34;5029792;28;20034;-84
2024/01/19 06:35:01;;;;;;;0.10;0.10;;;;;;;3.69;77.01;100217.78;5032393;28;20129;-90
2024/01/19 06:37:27;;;;;;;0.20;0.20;;;;;;;3.51;76.95;100192.69;5011220;28;20407;-90
2024/01/19 06:39:54;;;;;;;0.20;0.20;;;;;;;3.58;76.79;100201.88;5030517;28;20068;-84
2024/01/19 06:42:19;;;;;;;0.20;0.20;;;;;;;3.56;76.69;100195.97;5012173;28;20033;-86
2024/01/19 06:44:45;;;;;;;0.20;0.20;;;;;;;3.65;77.00;100200.84;5012731;28;20040;-90
2024/01/19 06:47:11;;;;;;;0.20;0.20;;;;;;;3.70;76.76;100204.09;5030184;28;20038;-88
2024/01/19 06:49:36;;;;;;;0.20;0.20;;;;;;;3.72;76.84;100201.50;4999601;28;20136;-90
2024/01/19 06:52:05;;;;;;;0.20;0.20;;;;;;;3.74;77.46;100208.28;5007603;28;20037;-87
2024/01/19 06:54:32;;;;;;;0.20;0.20;;;;;;;3.77;78.00;100220.13;5016888;28;20044;-84
2024/01/19 06:56:58;;;;;;;0.20;0.20;;;;;;;3.77;77.66;100211.63;5015227;28;20091;-81
2024/01/19 06:59:23;;;;;;;0.20;0.20;;;;;;;4.00;77.72;100222.03;5015290;28;20491;-83
2024/01/19 07:01:49;;;;;;;0.20;0.20;;;;;;;4.07;77.85;100202.25;5014847;28;20484;-83
2024/01/19 07:04:14;;;;;;;0.20;0.20;;;;;;;4.17;77.32;100204.50;4998844;28;20037;-83
2024/01/19 07:06:40;;;;;;;0.20;0.20;;;;;;;3.99;76.91;100180.25;5014465;28;20030;-81
2024/01/19 07:09:06;;;;;;;0.20;0.20;;;;;;;4.41;76.61;100222.56;5016433;28;20026;-91
2024/01/19 07:11:31;;;;;;;0.20;0.20;;;;;;;4.30;76.35;100200.66;5035691;28;20052;-89
2024/01/19 07:13:57;;;;;;;0.20;0.20;;;;;;;4.42;76.02;100217.38;5001014;28;20049;-86
2024/01/19 07:16:23;;;;;;;0.20;0.20;;;;;;;4.42;76.45;100207.13;5015198;28;20025;-88
2024/01/19 07:18:48;;;;;;;0.20;0.20;;;;;;;4.49;76.14;100200.13;4993758;28;20484;-86
2024/01/19 07:21:14;;;;;;;0.20;0.20;;;;;;;4.43;75.47;100185.78;4991526;28;20054;-85
2024/01/19 07:23:39;;;;;;;0.20;0.20;;;;;;;4.54;75.52;100206.78;5010153;28;20034;-91
2024/01/19 07:26:05;;;;;;;0.20;0.20;;;;;;;4.68;75.46;100218.31;5012471;28;20500;-88
2024/01/19 07:28:30;;;;;;;0.10;0.10;;;;;;;4.76;75.05;100216.38;5011137;28;20512;-88
2024/01/19 07:30:56;;;;;;;0.20;0.20;;;;;;;4.85;74.86;100224.59;5011158;28;20033;-86
2024/01/19 07:33:21;;;;;;;0.20;0.20;;;;;;;4.97;73.79;100232.78;5011482;28;20030;-89
2024/01/19 07:35:47;;;;;;;0.20;0.20;;;;;;;4.92;73.99;100211.56;5013428;28;20026;-92
2024/01/19 07:38:12;;;;;;;0.20;0.20;;;;;;;5.21;75.08;100220.88;4980578;28;20030;-87
2024/01/19 07:40:38;;;;;;;0.10;0.10;;;;;;;5.21;72.80;100216.63;4978801;28;20041;-87
2024/01/19 07:43:04;;;;;;;0.20;0.20;;;;;;;5.27;72.44;100216.38;4994830;28;20030;-85
2024/01/19 07:45:29;;;;;;;0.13;0.13;;;;;;;5.41;72.11;100203.94;5012010;28;20405;-88
2024/01/19 07:47:55;;;;;;;0.20;0.20;;;;;;;5.62;71.77;100222.06;4996153;28;20447;-86
2024/01/19 07:50:20;;;;;;;0.20;0.20;;;;;;;5.54;71.94;100218.91;5011486;28;20495;-86
2024/01/19 07:52:46;;;;;;;0.20;0.20;;;;;;;5.38;71.96;100209.16;5010704;28;20028;-87
2024/01/19 07:55:11;;;;;;;0.20;0.20;;;;;;;5.49;72.22;100229.31;5007010;28;20155;-89
2024/01/19 07:57:37;;;;;;;0.20;0.20;;;;;;;5.39;71.48;100220.25;5008984;28;20030;-92
2024/01/19 08:00:03;;;;;;;0.20;0.20;;;;;;;5.46;71.01;100230.28;5017854;28;20511;-86
2024/01/19 08:02:28;;;;;;;0.20;0.20;;;;;;;5.33;71.07;100223.06;5016504;28;20018;-91
2024/01/19 08:04:54;;;;;;;0.20;0.20;;;;;;;5.22;71.51;100228.53;5011018;28;20033;-89
2024/01/19 08:07:19;;;;;;;0.20;0.20;;;;;;;5.35;72.10;100222.09;5014671;28;20034;-87
2024/01/19 08:09:45;;;;;;;0.20;0.20;;;;;;;5.34;71.45;100207.59;5011367;28;20026;-88
2024/01/19 08:12:11;;;;;;;0.20;0.20;;;;;;;5.43;71.54;100217.56;5011210;28;20041;-86
2024/01/19 08:14:36;;;;;;;0.20;0.20;;;;;;;5.52;71.20;100205.31;5010541;28;20036;-85
2024/01/19 08:17:02;;;;;;;0.20;0.20;;;;;;;5.60;70.96;100222.09;5011483;28;20045;-86
2024/01/19 08:19:28;;;;;;;0.10;0.10;;;;;;;5.66;70.37;100208.22;5010088;28;20030;-91
2024/01/19 08:21:53;;;;;;;0.20;0.20;;;;;;;5.84;69.78;100222.97;5012389;28;20050;-90
2024/01/19 08:24:19;;;;;;;0.20;0.20;;;;;;;5.96;70.01;100234.56;5011962;28;20034;-90
2024/01/19 08:26:46;;;;;;;0.10;0.10;;;;;;;6.09;70.04;100233.19;5013787;28;20033;-91
2024/01/19 08:29:11;;;;;;;0.20;0.20;;;;;;;6.22;70.31;100231.03;5009499;28;20030;-84
2024/01/19 08:31:37;;;;;;;0.20;0.20;;;;;;;6.33;70.44;100227.16;4994309;28;20072;-85
2024/01/19 08:34:02;;;;;;;0.20;0.20;;;;;;;6.35;70.17;100219.41;5009905;28;20034;-82
2024/01/19 08:36:28;;;;;;;0.20;0.20;;;;;;;6.17;69.81;100184.97;5010736;28;20084;-83
2024/01/19 08:38:53;;;;;;;0.20;0.20;;;;;;;6.51;69.31;100230.78;5009929;28;20444;-91
2024/01/19 08:41:20;;;;;;;0.20;0.20;;;;;;;6.63;68.88;100220.91;4993753;28;20436;-85
2024/01/19 08:43:47;;;;;;;0.20;0.20;;;;;;;6.66;68.32;100229.34;4993684;28;20048;-85
2024/01/19 08:46:13;;;;;;;0.20;0.20;;;;;;;6.47;68.02;100213.78;5010780;28;20045;-86
2024/01/19 08:48:39;;;;;;;0.20;0.20;;;;;;;6.75;67.46;100235.84;5010412;28;20096;-85
2024/01/19 08:51:05;;;;;;;0.20;0.20;;;;;;;6.73;67.19;100230.78;5009855;28;20033;-85
2024/01/19 08:53:30;;;;;;;0.20;0.20;;;;;;;6.78;67.17;100228.84;5010092;28;20393;-86
2024/01/19 08:55:56;;;;;;;0.20;0.20;;;;;;;6.89;67.10;100220.72;4993670;28;20065;-88
2024/01/19 08:58:21;;;;;;;0.20;0.20;;;;;;;6.90;67.99;100227.53;5010282;28;20033;-88
2024/01/19 09:00:47;;;;;;;0.20;0.20;;;;;;;7.03;67.33;100236.44;4993466;28;20041;-87
2024/01/19 09:03:12;;;;;;;0.20;0.20;;;;;;;6.99;67.10;100234.88;5009601;28;21067;-86
2024/01/19 09:05:38;;;;;;;0.20;0.20;;;;;;;7.10;67.11;100230.13;5011195;28;20064;-86
2024/01/19 09:08:04;;;;;;;0.20;0.20;;;;;;;7.17;66.73;100231.53;4992660;28;20030;-85
2024/01/19 09:10:29;;;;;;;0.20;0.20;;;;;;;7.24;67.48;100236.44;5010763;28;20025;-82
2024/01/19 09:12:55;;;;;;;0.20;0.20;;;;;;;7.18;66.55;100238.38;5009265;28;20108;-83
2024/01/19 09:15:21;;;;;;;0.20;0.20;;;;;;;7.25;66.67;100232.97;4993513;28;20131;-86
2024/01/19 09:17:47;;;;;;;0.20;0.20;;;;;;;7.11;66.89;100225.84;5009368;28;20488;-86
2024/01/19 09:20:14;;;;;;;0.20;0.20;;;;;;;7.23;66.65;100234.78;5018156;28;20353;-92
2024/01/19 09:22:39;;;;;;;0.20;0.20;;;;;;;7.24;66.60;100221.84;5014111;28;20147;-87
2024/01/19 09:25:05;;;;;;;0.20;0.20;;;;;;;7.40;66.43;100222.06;5013387;28;20471;-89
2024/01/19 09:27:31;;;;;;;0.20;0.20;;;;;;;7.44;66.13;100223.59;5012723;28;20175;-83
2024/01/19 09:29:56;;;;;;;0.20;0.20;;;;;;;7.36;65.96;100199.91;5029371;28;20108;-88
2024/01/19 09:32:23;;;;;;;0.20;0.20;;;;;;;7.55;65.60;100213.66;5016252;28;20056;-91
2024/01/19 09:34:48;;;;;;;0.20;0.20;;;;;;;7.53;65.17;100207.75;5016406;28;20392;-89
2024/01/19 09:37:14;;;;;;;0.20;0.20;;;;;;;7.73;64.94;100218.03;5014034;28;20056;-93
2024/01/19 09:39:39;;;;;;;0.20;0.20;;;;;;;7.74;64.99;100203.41;5031566;28;20743;-85
2024/01/19 09:42:19;;;;;;;0.20;0.20;;;;;;;7.72;65.08;100206.06;4995910;28;20018;-86
2024/01/19 09:44:48;;;;;;;0.20;0.20;;;;;;;7.76;65.23;100207.56;4996594;28;20033;-85
2024/01/19 09:47:20;;;;;;;0.20;0.20;;;;;;;7.67;65.13;100210.56;4996433;28;20040;-84
2024/01/19 09:50:03;;;;;;;0.20;0.20;;;;;;;7.58;64.66;100216.13;5012305;28;20036;-87
2024/01/19 09:52:42;;;;;;;;;;;;;;;7.69;64.34;100208.78;4996424;28;20025;-87
2024/01/19 09:55:09;;;;;;;0.20;0.20;;;;;;;7.39;65.25;100171.47;5030499;28;19921;-86
2024/01/19 09:57:34;;;;;;;0.20;0.20;;;;;;;7.76;64.93;100199.00;5030361;28;20032;-89
2024/01/19 10:00:00;;;;;;;0.20;0.20;;;;;;;7.99;65.12;100191.13;5013568;28;20026;-91
2024/01/19 10:02:26;;;;;;;0.20;0.20;;;;;;;8.18;64.28;100185.13;5010430;28;20038;-90
2024/01/19 10:04:53;;;;;;;0.20;0.20;;;;;;;8.40;64.60;100190.16;5012826;28;20064;-92
2024/01/19 10:07:19;;;;;;;0.20;0.20;;;;;;;8.48;63.25;100175.16;5031903;28;20110;-83
2024/01/19 10:09:48;;;;;;;0.20;0.20;;;;;;;8.52;62.85;100174.94;5012053;28;20057;-85
2024/01/19 10:12:14;;;;;;;0.10;0.10;;;;;;;8.50;62.62;100156.13;4978625;28;20048;-87
2024/01/19 10:14:40;;;;;;;0.20;0.20;;;;;;;8.57;61.85;100165.25;4996137;28;20470;-88
2024/01/19 10:17:06;;;;;;;0.10;0.10;;;;;;;8.64;61.70;100163.19;5011706;28;20025;-91
2024/01/19 10:19:31;;;;;;;0.10;0.10;;;;;;;8.66;61.17;100160.56;5000061;28;20053;-87
2024/01/19 10:21:57;;;;;;;0.20;0.20;;;;;;;8.55;61.69;100145.59;5007135;28;20056;-90
2024/01/19 10:24:22;;;;;;;0.20;0.20;;;;;;;8.78;61.71;100163.38;5014167;28;20029;-90
2024/01/19 10:26:57;;;;;;;0.20;0.20;;;;;;;8.87;61.33;100164.69;5034126;28;20028;-91
2024/01/19 10:29:22;;;;;;;0.20;0.20;;;;;;;8.95;61.51;100148.78;5031911;28;20029;-86
2024/01/19 10:31:49;;;;;;;0.20;0.20;;;;;;;9.32;61.33;100150.38;5030577;28;20020;-89
2024/01/19 10:34:19;;;;;;;0.20;0.20;;;;;;;9.45;60.45;100156.59;5017376;28;20033;-87
2024/01/19 10:36:45;;;;;;;0.20;0.20;;;;;;;9.48;59.58;100136.59;5014377;28;20033;-88
2024/01/19 10:39:18;;;;;;;0.20;0.20;;;;;;;9.61;59.15;100157.44;5017739;28;20491;-91
2024/01/19 10:41:43;;;;;;;0.20;0.20;;;;;;;9.76;59.01;100155.81;5034684;28;20022;-89
2024/01/19 10:44:10;;;;;;;0.20;0.20;;;;;;;9.82;59.25;100137.38;5002468;28;20494;-85
2024/01/19 10:46:35;;;;;;;0.20;0.20;;;;;;;9.89;59.31;100135.31;5016581;28;20033;-85
2024/01/19 10:49:05;;;;;;;0.20;0.20;;;;;;;9.95;59.52;100140.16;5016115;28;20533;-84
2024/01/19 10:51:34;;;;;;;0.20;0.20;;;;;;;10.17;58.72;100155.34;4997171;28;20033;-84
2024/01/19 10:54:02;;;;;;;0.20;0.20;;;;;;;10.39;58.59;100144.66;5007386;28;20506;-88
2024/01/19 10:56:28;;;;;;;0.20;0.20;;;;;;;10.47;58.54;100132.97;5032922;28;20532;-84
2024/01/19 10:58:53;;;;;;;0.20;0.20;;;;;;;10.54;58.21;100129.13;4998455;28;20041;-84
2024/01/19 11:01:19;;;;;;;0.20;0.20;;;;;;;10.65;58.49;100133.69;5015308;28;20026;-89
2024/01/19 11:03:45;;;;;;;0.20;0.20;;;;;;;10.82;58.17;100140.50;5032938;28;20037;-86
2024/01/19 11:06:10;;;;;;;0.20;0.20;;;;;;;10.89;58.64;100126.28;4999227;28;20491;-85
2024/01/19 11:08:36;;;;;;;0.20;0.20;;;;;;;10.98;58.42;100130.91;4998747;28;20021;-82
2024/01/19 11:11:03;;;;;;;0.20;0.20;;;;;;;10.84;58.51;100107.59;5032790;28;20503;-85
2024/01/19 11:13:29;;;;;;;0.20;0.20;;;;;;;10.91;59.06;100120.09;4998806;28;20029;-87
2024/01/19 11:15:56;;;;;;;0.20;0.20;;;;;;;11.09;59.37;100125.94;5014793;28;20034;-85
2024/01/19 11:18:22;;;;;;;0.20;0.20;;;;;;;11.08;59.28;100129.44;4996591;28;20029;-86
2024/01/19 11:20:47;;;;;;;0.17;0.17;;;;;;;11.16;59.51;100116.91;5021855;28;20140;-87
2024/01/19 11:23:13;;;;;;;0.10;0.10;;;;;;;11.22;59.56;100117.47;5011217;28;20414;-86
2024/01/19 11:26:01;;;;;;;0.20;0.20;;;;;;;11.20;59.74;100128.72;4995885;28;20080;-89
2024/01/19 11:28:44;;;;;;;0.20;0.20;;;;;;;11.17;59.79;100110.78;4996091;28;20038;-93